Time;durP1;ratioP1;P1;durP2;ratioP2;P2;SDS_P1;SDS_P2;PMS_P1;PMS_P2;Temp;Humidity;BMP_temperature;BMP_pressure;BME280_temperature;BME280_humidity;BME280_pressure;Samples;Min_cycle;Max_cycle;Signal;HPM_P1;HPM_P2
2024/03/18 00:01:55;;;;;;;11.40;10.10;;;10.50;99.90;;;;;;5031082;28;20633;-73
2024/03/18 00:04:21;;;;;;;13.50;10.47;;;10.40;99.90;;;;;;5030735;28;20187;-73
2024/03/18 00:06:48;;;;;;;14.40;10.93;;;10.40;99.90;;;;;;5031144;28;20179;-73
2024/03/18 00:09:14;;;;;;;16.17;11.07;;;10.40;99.90;;;;;;5031044;28;20630;-72
2024/03/18 00:11:39;;;;;;;17.30;10.83;;;10.40;99.90;;;;;;5093612;23;20711;-75
2024/03/18 00:14:05;;;;;;;14.10;11.17;;;10.30;99.90;;;;;;5011000;28;20184;-75
2024/03/18 00:16:30;;;;;;;13.00;10.77;;;10.30;99.90;;;;;;5010997;28;20255;-74
2024/03/18 00:18:56;;;;;;;15.30;11.10;;;10.30;99.90;;;;;;5010862;28;20208;-75
2024/03/18 00:21:22;;;;;;;12.13;10.80;;;10.30;99.90;;;;;;5002399;28;20510;-75
2024/03/18 00:23:47;;;;;;;12.13;10.73;;;10.30;99.90;;;;;;4991668;28;20193;-75
2024/03/18 00:26:13;;;;;;;11.50;10.30;;;10.30;99.90;;;;;;4991495;28;20208;-74
2024/03/18 00:28:39;;;;;;;20.03;10.80;;;10.30;99.90;;;;;;4991360;28;20237;-74
2024/03/18 00:31:05;;;;;;;15.40;10.73;;;10.30;99.90;;;;;;4991370;28;20244;-74
2024/03/18 00:33:30;;;;;;;14.40;10.77;;;10.30;99.90;;;;;;4991517;28;20556;-74
2024/03/18 00:35:59;;;;;;;13.43;10.33;;;10.30;99.90;;;;;;4991651;28;20176;-75
2024/03/18 00:38:25;;;;;;;13.40;10.47;;;10.30;99.90;;;;;;4994987;28;20276;-74
2024/03/18 00:41:44;;;;;;;13.47;9.97;;;10.30;99.90;;;;;;4994994;28;20796;-74
2024/03/18 00:43:37;;;;;;;16.67;10.33;;;10.30;99.90;;;;;;4994741;28;20176;-75
2024/03/18 00:46:03;;;;;;;12.53;10.90;;;10.30;99.90;;;;;;4994502;28;20203;-75
2024/03/18 00:48:29;;;;;;;13.70;10.47;;;10.30;99.90;;;;;;4995029;28;20177;-74
2024/03/18 00:50:55;;;;;;;14.20;10.53;;;10.30;99.90;;;;;;4994743;28;20207;-75
2024/03/18 00:53:20;;;;;;;15.50;11.70;;;10.30;99.90;;;;;;4994678;28;20181;-75
2024/03/18 00:55:46;;;;;;;17.17;11.57;;;10.20;99.90;;;;;;4994294;28;20204;-75
2024/03/18 00:58:12;;;;;;;16.90;12.07;;;10.20;99.90;;;;;;4994809;28;20617;-75
2024/03/18 01:00:37;;;;;;;16.03;11.97;;;10.30;99.90;;;;;;4994406;28;20197;-75
2024/03/18 01:03:03;;;;;;;15.87;11.50;;;10.30;99.90;;;;;;4994667;28;20248;-75
2024/03/18 01:05:29;;;;;;;14.10;11.63;;;10.30;99.90;;;;;;4994265;28;20232;-75
2024/03/18 01:07:55;;;;;;;15.23;12.43;;;10.20;99.90;;;;;;4993954;28;20197;-75
2024/03/18 01:10:21;;;;;;;18.07;13.33;;;10.20;99.90;;;;;;4994247;28;20260;-74
2024/03/18 01:12:47;;;;;;;17.30;11.83;;;10.20;99.90;;;;;;4994141;28;20284;-75
2024/03/18 01:15:12;;;;;;;15.60;12.37;;;10.30;99.90;;;;;;4992960;28;20176;-75
2024/03/18 01:17:38;;;;;;;14.83;12.23;;;10.20;99.90;;;;;;4994317;28;20192;-75
2024/03/18 01:20:14;;;;;;;16.70;12.70;;;10.20;99.90;;;;;;4994426;28;20462;-74
2024/03/18 01:22:40;;;;;;;16.57;12.77;;;10.30;99.90;;;;;;4993893;28;20208;-74
2024/03/18 01:25:06;;;;;;;16.50;12.67;;;10.30;99.90;;;;;;4994187;28;20200;-74
2024/03/18 01:27:33;;;;;;;16.67;13.97;;;10.30;99.90;;;;;;4994288;28;20173;-75
2024/03/18 01:29:59;;;;;;;17.40;13.37;;;10.30;99.90;;;;;;4993971;28;20292;-75
2024/03/18 01:32:25;;;;;;;16.93;13.47;;;10.40;99.90;;;;;;4994138;28;20189;-75
2024/03/18 01:34:50;;;;;;;20.80;14.47;;;10.40;99.90;;;;;;4993290;28;20300;-75
2024/03/18 01:37:16;;;;;;;20.67;14.83;;;10.40;99.90;;;;;;4993887;28;20180;-74
2024/03/18 01:39:42;;;;;;;19.90;14.93;;;10.50;99.90;;;;;;4994280;28;20181;-74
2024/03/18 01:42:07;;;;;;;22.87;15.60;;;10.50;99.90;;;;;;4994980;28;20189;-74
2024/03/18 01:44:33;;;;;;;21.43;16.37;;;10.40;99.90;;;;;;4995172;28;20536;-74
2024/03/18 01:46:59;;;;;;;21.13;14.33;;;10.40;99.90;;;;;;4994961;28;20173;-74
2024/03/18 01:49:25;;;;;;;21.83;16.63;;;10.40;99.90;;;;;;4994187;28;20591;-77
2024/03/18 01:51:50;;;;;;;18.63;15.67;;;10.40;99.90;;;;;;4993443;28;20208;-74
2024/03/18 01:54:16;;;;;;;21.17;15.73;;;10.40;99.90;;;;;;4993605;28;20617;-75
2024/03/18 01:56:42;;;;;;;24.33;17.70;;;10.40;99.90;;;;;;4993633;28;20180;-74
2024/03/18 01:59:10;;;;;;;26.73;17.93;;;10.40;99.90;;;;;;4993568;28;20696;-73
2024/03/18 02:01:36;;;;;;;25.27;18.50;;;10.40;99.90;;;;;;4993309;28;20615;-75
2024/03/18 02:04:11;;;;;;;29.33;19.03;;;10.40;99.90;;;;;;4993273;28;20199;-75
2024/03/18 02:06:41;;;;;;;29.77;19.63;;;10.30;99.90;;;;;;4993702;28;20169;-74
2024/03/18 02:09:08;;;;;;;29.80;20.03;;;10.30;99.90;;;;;;4993469;28;20231;-75
2024/03/18 02:11:34;;;;;;;30.80;20.80;;;10.30;99.90;;;;;;4993124;28;20209;-74
2024/03/18 02:13:59;;;;;;;30.60;20.50;;;10.30;99.90;;;;;;4992511;28;20547;-74
2024/03/18 02:16:27;;;;;;;37.67;20.43;;;10.40;99.90;;;;;;4992938;28;20188;-74
2024/03/18 02:18:53;;;;;;;32.50;22.70;;;10.40;99.90;;;;;;4992985;28;20204;-74
2024/03/18 02:21:18;;;;;;;36.13;21.53;;;10.40;99.90;;;;;;4992859;28;20278;-74
2024/03/18 02:23:44;;;;;;;40.07;22.47;;;10.30;99.90;;;;;;4992734;28;20171;-74
2024/03/18 02:26:10;;;;;;;34.77;21.10;;;10.30;99.90;;;;;;4992635;28;20177;-75
2024/03/18 02:28:42;;;;;;;35.17;20.63;;;10.30;99.90;;;;;;4992999;28;20547;-74
2024/03/18 02:31:07;;;;;;;31.87;22.47;;;10.30;99.90;;;;;;4992953;28;20227;-74
2024/03/18 02:33:35;;;;;;;36.07;21.83;;;10.40;99.90;;;;;;4992851;28;20661;-74
2024/03/18 02:36:04;;;;;;;37.77;22.60;;;10.40;99.90;;;;;;4992384;28;20172;-74
2024/03/18 02:38:30;;;;;;;36.00;21.20;;;10.40;99.90;;;;;;4992872;28;20669;-74
2024/03/18 02:40:55;;;;;;;35.20;24.13;;;10.40;99.90;;;;;;4992429;28;20259;-75
2024/03/18 02:43:21;;;;;;;37.43;23.07;;;10.40;99.90;;;;;;4992886;28;20169;-74
2024/03/18 02:45:47;;;;;;;33.40;23.43;;;10.40;99.90;;;;;;4992642;28;20481;-75
2024/03/18 02:48:13;;;;;;;36.00;22.77;;;10.40;99.90;;;;;;4992716;28;20208;-75
2024/03/18 02:50:39;;;;;;;38.70;23.80;;;10.40;99.90;;;;;;4992539;28;20685;-74
2024/03/18 02:53:06;;;;;;;35.80;23.63;;;10.40;99.90;;;;;;4992187;28;20547;-74
2024/03/18 02:55:31;;;;;;;38.50;23.63;;;10.40;99.90;;;;;;4992247;28;20526;-74
2024/03/18 02:57:57;;;;;;;38.67;23.33;;;10.40;99.90;;;;;;4992083;28;20251;-74
2024/03/18 03:00:22;;;;;;;48.47;24.77;;;10.40;99.90;;;;;;4991838;28;20184;-74
2024/03/18 03:02:48;;;;;;;46.83;24.77;;;10.40;99.90;;;;;;4992105;28;20169;-74
2024/03/18 03:05:15;;;;;;;47.40;26.27;;;10.40;99.90;;;;;;4992177;28;20175;-74
2024/03/18 03:07:40;;;;;;;43.77;25.63;;;10.50;99.90;;;;;;4990619;28;20180;-73
2024/03/18 03:10:07;;;;;;;41.70;24.80;;;10.50;99.90;;;;;;4991760;28;20184;-74
2024/03/18 03:12:33;;;;;;;44.67;24.83;;;10.50;99.90;;;;;;4991979;28;20247;-74
2024/03/18 03:14:59;;;;;;;40.00;24.23;;;10.50;99.90;;;;;;4991842;28;20217;-75
2024/03/18 03:17:24;;;;;;;36.90;23.10;;;10.50;99.90;;;;;;4992443;28;20177;-74
2024/03/18 03:19:51;;;;;;;38.57;23.73;;;10.50;99.90;;;;;;4992154;28;20181;-73
2024/03/18 03:22:19;;;;;;;43.20;25.43;;;10.50;99.90;;;;;;4992321;28;20576;-74
2024/03/18 03:24:48;;;;;;;42.97;25.17;;;10.50;99.90;;;;;;4992114;28;20241;-75
2024/03/18 03:27:15;;;;;;;39.63;25.07;;;10.50;99.90;;;;;;4992298;28;20548;-75
2024/03/18 03:29:41;;;;;;;44.13;24.97;;;10.40;99.90;;;;;;4992228;28;20181;-75
2024/03/18 03:32:09;;;;;;;44.37;24.60;;;10.40;99.90;;;;;;4992124;28;20196;-75
2024/03/18 03:34:37;;;;;;;42.63;26.67;;;10.40;99.90;;;;;;4991515;28;20651;-74
2024/03/18 03:37:03;;;;;;;43.20;25.60;;;10.40;99.90;;;;;;4992167;28;20257;-74
2024/03/18 03:39:29;;;;;;;46.40;25.57;;;10.50;99.90;;;;;;4992049;28;20208;-75
2024/03/18 03:41:55;;;;;;;49.37;25.57;;;10.40;99.90;;;;;;4991724;28;20590;-75
2024/03/18 03:44:21;;;;;;;40.80;26.43;;;10.40;99.90;;;;;;4991706;28;20176;-74
2024/03/18 03:46:50;;;;;;;42.30;25.57;;;10.40;99.90;;;;;;4991710;28;20271;-74
2024/03/18 03:49:19;;;;;;;44.07;25.10;;;10.40;99.90;;;;;;4992074;28;20177;-75
2024/03/18 03:51:45;;;;;;;44.33;26.13;;;10.40;99.90;;;;;;4991781;28;20204;-75
2024/03/18 03:54:11;;;;;;;45.97;25.37;;;10.40;99.90;;;;;;4991671;28;20634;-74
2024/03/18 03:56:37;;;;;;;44.33;24.33;;;10.40;99.90;;;;;;4992021;28;20177;-75
2024/03/18 03:59:03;;;;;;;39.80;24.53;;;10.40;99.90;;;;;;4991956;28;20209;-74
2024/03/18 04:01:28;;;;;;;41.53;25.47;;;10.40;99.90;;;;;;4991930;28;20197;-75
2024/03/18 04:03:54;;;;;;;44.97;26.70;;;10.40;99.90;;;;;;4991546;28;20484;-75
2024/03/18 04:06:20;;;;;;;45.77;24.30;;;10.40;99.90;;;;;;4991845;28;20220;-75
2024/03/18 04:08:45;;;;;;;45.60;24.87;;;10.40;99.90;;;;;;4992254;28;20629;-75
2024/03/18 04:11:11;;;;;;;41.47;25.13;;;10.40;99.90;;;;;;4993308;28;20278;-75
2024/03/18 04:13:37;;;;;;;44.80;24.60;;;10.40;99.90;;;;;;4995767;28;20177;-74
2024/03/18 04:16:03;;;;;;;42.77;25.47;;;10.40;99.90;;;;;;4995247;28;20199;-75
2024/03/18 04:18:29;;;;;;;43.90;25.77;;;10.40;99.90;;;;;;4995402;28;20635;-74
2024/03/18 04:20:55;;;;;;;43.13;24.37;;;10.40;99.90;;;;;;4995536;28;20196;-75
2024/03/18 04:23:20;;;;;;;42.50;25.73;;;10.40;99.90;;;;;;4995697;28;20181;-75
2024/03/18 04:25:47;;;;;;;52.77;26.03;;;10.40;99.90;;;;;;4995065;28;20638;-75
2024/03/18 04:28:13;;;;;;;43.97;26.07;;;10.40;99.90;;;;;;4995504;28;20256;-75
2024/03/18 04:30:39;;;;;;;39.70;24.40;;;10.40;99.90;;;;;;4995707;28;20235;-75
2024/03/18 04:33:06;;;;;;;51.83;26.70;;;10.40;99.90;;;;;;4995327;28;20181;-75
2024/03/18 04:35:31;;;;;;;45.77;26.23;;;10.40;99.90;;;;;;4995292;28;20264;-74
2024/03/18 04:37:57;;;;;;;44.13;25.83;;;10.40;99.90;;;;;;4994867;28;20196;-74
2024/03/18 04:40:25;;;;;;;43.70;25.33;;;10.40;99.90;;;;;;4995386;28;20558;-75
2024/03/18 04:42:52;;;;;;;47.13;25.13;;;10.40;99.90;;;;;;4995033;28;20242;-75
2024/03/18 04:45:20;;;;;;;45.97;25.20;;;10.40;99.90;;;;;;4994805;28;20177;-75
2024/03/18 04:47:51;;;;;;;44.30;24.97;;;10.40;99.90;;;;;;4995464;28;20177;-75
2024/03/18 04:50:19;;;;;;;47.33;25.97;;;10.40;99.90;;;;;;4995075;28;20184;-75
2024/03/18 04:52:45;;;;;;;44.80;23.03;;;10.30;99.90;;;;;;4995022;28;20180;-75
2024/03/18 04:55:11;;;;;;;38.50;22.70;;;10.40;99.90;;;;;;4994757;28;20185;-74
2024/03/18 04:57:37;;;;;;;44.73;25.13;;;10.40;99.90;;;;;;4994867;28;20258;-75
2024/03/18 05:00:14;;;;;;;45.13;24.63;;;10.30;99.90;;;;;;4994727;28;20220;-75
2024/03/18 05:02:40;;;;;;;41.03;24.53;;;10.30;99.90;;;;;;4994904;28;20185;-75
2024/03/18 05:05:07;;;;;;;41.50;23.50;;;10.20;99.90;;;;;;4994348;28;20184;-75
2024/03/18 05:07:33;;;;;;;42.37;24.70;;;10.20;99.90;;;;;;4995033;28;20188;-75
2024/03/18 05:09:59;;;;;;;42.57;23.67;;;10.20;99.90;;;;;;4994772;28;20520;-75
2024/03/18 05:12:25;;;;;;;45.03;23.97;;;10.10;99.90;;;;;;4994639;28;20258;-75
2024/03/18 05:14:51;;;;;;;39.57;23.63;;;10.10;99.90;;;;;;4994567;28;20642;-75
2024/03/18 05:17:17;;;;;;;44.40;24.60;;;10.10;99.90;;;;;;4994743;28;20268;-74
2024/03/18 05:19:43;;;;;;;42.60;23.43;;;10.10;99.90;;;;;;4994515;28;20185;-75
2024/03/18 05:22:10;;;;;;;44.57;23.80;;;10.10;99.90;;;;;;4993601;28;20743;-75
2024/03/18 05:24:37;;;;;;;44.60;23.43;;;10.00;99.90;;;;;;4994291;28;20661;-75
2024/03/18 05:27:03;;;;;;;43.40;24.67;;;10.00;99.90;;;;;;4994460;28;20169;-74
2024/03/18 05:29:29;;;;;;;38.37;22.97;;;9.90;99.90;;;;;;4994223;28;20304;-75
2024/03/18 05:32:06;;;;;;;47.80;25.07;;;9.80;99.90;;;;;;4993613;28;20283;-74
2024/03/18 05:34:32;;;;;;;41.07;23.43;;;9.80;99.90;;;;;;4993932;28;20275;-75
2024/03/18 05:36:57;;;;;;;45.80;25.53;;;9.80;99.90;;;;;;4993992;28;20264;-74
2024/03/18 05:39:23;;;;;;;41.07;24.07;;;9.70;99.90;;;;;;4994292;28;20208;-75
2024/03/18 05:41:49;;;;;;;49.73;25.60;;;9.70;99.90;;;;;;4994231;28;20287;-74
2024/03/18 05:44:15;;;;;;;46.17;24.80;;;9.70;99.90;;;;;;4993681;28;20260;-75
2024/03/18 05:46:40;;;;;;;44.70;25.47;;;9.70;99.90;;;;;;4993666;28;20169;-75
2024/03/18 05:49:06;;;;;;;46.30;25.83;;;9.70;99.90;;;;;;4993829;28;20783;-74
2024/03/18 05:51:31;;;;;;;47.30;26.17;;;9.70;99.90;;;;;;4993779;28;20197;-75
2024/03/18 05:53:57;;;;;;;45.63;25.33;;;9.70;99.90;;;;;;4993644;28;20629;-74
2024/03/18 05:56:23;;;;;;;49.30;26.27;;;9.70;99.90;;;;;;4993553;28;20300;-73
2024/03/18 05:58:48;;;;;;;49.53;26.10;;;9.80;99.90;;;;;;4993789;28;20214;-74
2024/03/18 06:01:14;;;;;;;54.50;27.90;;;9.90;99.90;;;;;;4993542;28;20193;-74
2024/03/18 06:03:40;;;;;;;51.77;27.07;;;10.00;99.90;;;;;;4993701;28;20176;-74
2024/03/18 06:06:07;;;;;;;56.30;28.17;;;10.00;99.90;;;;;;4993096;28;20231;-74
2024/03/18 06:08:33;;;;;;;50.07;26.93;;;10.10;99.90;;;;;;4993701;28;20204;-74
2024/03/18 06:10:59;;;;;;;47.97;27.33;;;10.10;99.90;;;;;;4994077;28;20312;-74
2024/03/18 06:13:25;;;;;;;46.47;27.23;;;10.10;99.90;;;;;;4994363;28;20690;-74
2024/03/18 06:15:51;;;;;;;51.87;27.00;;;10.10;99.90;;;;;;4993870;28;20183;-75
2024/03/18 06:18:16;;;;;;;52.30;26.93;;;10.10;99.90;;;;;;4993593;28;20669;-74
2024/03/18 06:20:43;;;;;;;56.43;27.27;;;10.10;99.90;;;;;;4994200;28;20195;-75
2024/03/18 06:23:10;;;;;;;47.50;26.73;;;10.10;99.90;;;;;;4994266;28;20173;-75
2024/03/18 06:28:19;;;;;;;53.43;27.83;;;10.10;99.90;;;;;;4994290;28;20618;-75
2024/03/18 06:30:49;;;;;;;50.70;26.50;;;10.10;99.90;;;;;;4994542;28;20206;-76
2024/03/18 06:33:14;;;;;;;55.50;27.00;;;10.10;99.90;;;;;;4994081;28;20188;-76
2024/03/18 06:35:42;;;;;;;62.53;26.97;;;10.20;99.90;;;;;;4993029;28;20185;-75
2024/03/18 06:38:07;;;;;;;52.50;27.23;;;10.20;99.90;;;;;;4993934;28;20205;-76
2024/03/18 06:40:33;;;;;;;54.83;28.40;;;10.30;99.90;;;;;;4994235;28;20204;-75
2024/03/18 06:42:59;;;;;;;54.13;28.13;;;10.40;99.90;;;;;;4994930;28;20215;-75
2024/03/18 06:45:25;;;;;;;52.03;26.57;;;10.40;99.90;;;;;;4996296;28;20255;-75
2024/03/18 06:47:50;;;;;;;55.83;29.07;;;10.50;99.90;;;;;;4995890;28;20200;-72
2024/03/18 06:50:16;;;;;;;53.77;29.50;;;10.50;99.90;;;;;;4994555;28;20263;-74
2024/03/18 06:52:41;;;;;;;48.80;27.80;;;10.50;99.90;;;;;;4995329;28;20271;-75
2024/03/18 06:55:07;;;;;;;50.33;27.73;;;10.60;99.90;;;;;;4994520;28;20181;-75
2024/03/18 06:57:33;;;;;;;58.13;28.33;;;10.60;99.90;;;;;;4995153;28;20586;-75
2024/03/18 07:00:00;;;;;;;56.90;29.00;;;10.70;99.90;;;;;;4994613;28;20176;-74
2024/03/18 07:02:26;;;;;;;61.60;30.03;;;10.90;99.90;;;;;;4994509;28;20192;-74
2024/03/18 07:04:52;;;;;;;53.80;29.63;;;11.00;99.90;;;;;;4993181;28;20267;-75
2024/03/18 07:07:18;;;;;;;52.33;30.07;;;11.10;99.90;;;;;;4994933;28;20196;-75
2024/03/18 07:09:43;;;;;;;53.80;30.73;;;11.30;99.90;;;;;;4994973;28;20205;-75
2024/03/18 07:12:09;;;;;;;52.43;28.97;;;11.50;99.90;;;;;;4994614;28;20201;-74
2024/03/18 07:14:36;;;;;;;49.97;27.67;;;11.90;99.90;;;;;;4994318;28;20254;-75
2024/03/18 07:17:03;;;;;;;51.53;29.33;;;12.10;99.90;;;;;;4993893;28;20173;-76
2024/03/18 07:19:29;;;;;;;41.07;26.43;;;12.40;99.90;;;;;;4992823;28;20205;-74
2024/03/18 07:21:56;;;;;;;37.83;26.13;;;12.50;99.90;;;;;;4992918;28;20706;-75
2024/03/18 07:24:21;;;;;;;37.30;23.97;;;12.70;99.90;;;;;;4992943;28;20263;-76
2024/03/18 07:26:47;;;;;;;35.37;22.37;;;12.70;99.90;;;;;;4993146;28;20303;-75
2024/03/18 07:29:15;;;;;;;31.90;22.17;;;12.60;99.90;;;;;;4991987;28;20638;-75
2024/03/18 07:31:40;;;;;;;35.20;22.87;;;12.40;99.90;;;;;;4993293;28;20696;-75
2024/03/18 07:34:06;;;;;;;30.50;23.03;;;12.30;99.90;;;;;;4994203;28;20177;-74
2024/03/18 07:36:31;;;;;;;32.50;23.27;;;12.10;99.90;;;;;;4994283;28;20208;-74
2024/03/18 07:38:58;;;;;;;34.27;23.17;;;12.00;99.90;;;;;;4992377;28;20599;-74
2024/03/18 07:41:24;;;;;;;31.97;22.70;;;12.10;99.90;;;;;;4992588;28;20247;-75
2024/03/18 07:43:50;;;;;;;32.93;22.77;;;12.10;99.90;;;;;;4992025;28;20169;-74
2024/03/18 07:46:16;;;;;;;30.50;22.27;;;12.10;99.90;;;;;;4990595;28;20188;-75
2024/03/18 07:48:41;;;;;;;29.53;21.93;;;12.10;99.90;;;;;;4995530;28;20204;-74
2024/03/18 07:51:09;;;;;;;31.47;23.00;;;12.20;99.90;;;;;;4991669;28;20193;-75
2024/03/18 07:53:35;;;;;;;30.70;21.13;;;12.40;99.90;;;;;;4992045;28;20258;-74
2024/03/18 07:56:01;;;;;;;28.10;20.47;;;12.60;99.90;;;;;;4991781;28;20596;-75
2024/03/18 07:58:27;;;;;;;27.70;19.83;;;12.70;99.90;;;;;;4992508;28;20208;-74
2024/03/18 08:00:55;;;;;;;25.60;19.37;;;12.90;99.90;;;;;;4991860;28;20200;-74
2024/03/18 08:03:21;;;;;;;27.70;19.23;;;13.00;99.90;;;;;;4993442;28;20161;-75
2024/03/18 08:05:46;;;;;;;26.23;19.60;;;13.10;99.90;;;;;;4992905;28;20173;-75
2024/03/18 08:08:12;;;;;;;28.13;20.10;;;13.10;99.90;;;;;;4992607;28;20184;-75
2024/03/18 08:10:37;;;;;;;28.03;19.60;;;13.10;99.90;;;;;;4994685;28;20236;-75
2024/03/18 08:13:03;;;;;;;24.57;18.67;;;13.10;99.90;;;;;;4994149;28;20462;-75
2024/03/18 08:15:29;;;;;;;21.87;18.43;;;13.20;99.90;;;;;;4992818;28;20180;-75
2024/03/18 08:17:54;;;;;;;25.43;18.30;;;13.40;99.90;;;;;;5008456;28;20205;-75
2024/03/18 08:20:20;;;;;;;22.90;17.73;;;13.40;99.90;;;;;;4994990;28;20188;-76
2024/03/18 08:22:45;;;;;;;23.80;18.20;;;13.50;99.90;;;;;;4993809;28;20184;-76
2024/03/18 08:25:11;;;;;;;21.90;18.03;;;13.60;99.90;;;;;;4993037;28;20204;-76
2024/03/18 08:27:37;;;;;;;22.90;18.23;;;13.90;99.90;;;;;;4992944;28;20223;-76
2024/03/18 08:30:07;;;;;;;20.13;16.97;;;14.20;99.90;;;;;;4992984;28;20173;-76
2024/03/18 08:32:32;;;;;;;20.03;16.30;;;14.50;99.90;;;;;;4992345;28;20243;-76
2024/03/18 08:34:58;;;;;;;17.50;15.40;;;14.80;99.90;;;;;;4990594;28;20204;-74
2024/03/18 08:37:23;;;;;;;16.73;14.50;;;15.00;99.90;;;;;;4991115;28;20199;-75
2024/03/18 08:39:52;;;;;;;15.87;13.57;;;15.20;99.90;;;;;;4991199;28;20185;-74
2024/03/18 08:42:18;;;;;;;16.77;11.50;;;15.50;99.90;;;;;;4991056;28;20280;-74
2024/03/18 08:44:47;;;;;;;15.10;11.63;;;15.80;99.90;;;;;;4990899;28;20252;-74
2024/03/18 08:47:12;;;;;;;11.70;10.50;;;16.20;99.90;;;;;;4990744;28;20562;-74
2024/03/18 08:49:38;;;;;;;11.83;9.73;;;16.50;99.90;;;;;;4990658;28;20185;-75
2024/03/18 08:52:04;;;;;;;11.50;10.30;;;16.70;99.90;;;;;;4992845;28;20197;-75
2024/03/18 08:54:30;;;;;;;11.63;10.27;;;16.80;99.90;;;;;;4990917;28;20597;-75
2024/03/18 08:56:56;;;;;;;11.23;9.73;;;16.90;99.90;;;;;;4990797;28;20255;-75
2024/03/18 08:59:22;;;;;;;11.60;10.47;;;17.10;99.90;;;;;;4994246;28;20304;-74
2024/03/18 09:01:48;;;;;;;10.90;9.77;;;17.30;99.90;;;;;;4994657;28;20251;-74
2024/03/18 09:04:14;;;;;;;12.17;9.47;;;17.70;99.90;;;;;;4993703;28;20176;-73
2024/03/18 09:06:40;;;;;;;9.67;8.63;;;17.90;99.90;;;;;;4994991;28;20638;-73
2024/03/18 09:09:06;;;;;;;10.07;8.20;;;18.10;99.90;;;;;;4994233;28;20252;-75
2024/03/18 09:11:33;;;;;;;9.63;7.63;;;18.10;99.90;;;;;;4994193;28;20716;-74
2024/03/18 09:13:58;;;;;;;8.90;7.30;;;17.80;99.90;;;;;;4993865;28;20177;-75
2024/03/18 09:16:24;;;;;;;7.73;7.03;;;17.40;99.90;;;;;;4994236;28;20180;-75
2024/03/18 09:18:50;;;;;;;9.07;8.17;;;17.30;99.90;;;;;;4994267;28;20610;-74
2024/03/18 09:21:16;;;;;;;8.83;7.80;;;17.40;99.90;;;;;;4993739;28;20693;-74
2024/03/18 09:23:42;;;;;;;9.52;7.35;;;17.70;99.90;;;;;;4994605;28;20180;-74
2024/03/18 09:26:07;;;;;;;7.75;7.05;;;17.70;99.90;;;;;;4993009;28;20181;-74
2024/03/18 09:28:33;;;;;;;7.82;6.78;;;18.00;99.90;;;;;;4994088;28;20660;-73
2024/03/18 09:31:01;;;;;;;8.35;6.22;;;18.30;99.90;;;;;;4992576;28;20245;-74
2024/03/18 09:33:28;;;;;;;8.88;5.75;;;18.80;99.90;;;;;;4994214;28;20183;-73
2024/03/18 09:35:54;;;;;;;6.90;5.82;;;18.90;99.90;;;;;;4992494;28;20204;-74
2024/03/18 09:38:19;;;;;;;7.97;6.65;;;19.00;99.90;;;;;;4993593;28;20697;-74
2024/03/18 09:40:45;;;;;;;8.65;5.90;;;19.10;99.90;;;;;;4993893;28;20200;-73
2024/03/18 09:43:11;;;;;;;7.60;6.53;;;19.20;99.90;;;;;;4993627;28;20638;-73
2024/03/18 09:45:37;;;;;;;10.02;6.10;;;19.20;99.90;;;;;;5008550;28;20218;-73
2024/03/18 09:48:04;;;;;;;6.00;5.40;;;19.30;99.90;;;;;;4993318;28;20172;-73
2024/03/18 09:50:34;;;;;;;9.50;5.70;;;19.40;99.90;;;;;;4993538;28;20552;-73
2024/03/18 09:53:00;;;;;;;8.27;5.65;;;19.90;99.90;;;;;;4993239;28;20634;-73
2024/03/18 09:55:27;;;;;;;8.88;4.95;;;20.40;99.90;;;;;;4993468;28;20184;-72
2024/03/18 09:57:55;;;;;;;7.13;5.25;;;20.50;99.90;;;;;;4993599;28;20661;-73
2024/03/18 10:00:21;;;;;;;8.27;5.00;;;20.30;99.90;;;;;;4993253;28;20173;-73
2024/03/18 10:02:47;;;;;;;11.23;4.25;;;19.80;99.90;;;;;;4992939;28;20172;-73
2024/03/18 10:05:13;;;;;;;8.00;5.70;;;19.20;99.90;;;;;;4993157;28;20200;-73
2024/03/18 10:07:40;;;;;;;6.68;4.43;;;19.00;99.90;;;;;;4993524;28;20173;-73
2024/03/18 10:10:17;;;;;;;6.63;4.95;;;19.00;99.90;;;;;;4992807;28;20172;-73
2024/03/18 10:12:43;;;;;;;6.25;5.03;;;18.80;99.90;;;;;;4993220;28;20185;-73
2024/03/18 10:15:13;;;;;;;11.37;6.07;;;18.40;99.90;;;;;;4992739;28;20176;-72
2024/03/18 10:17:40;;;;;;;6.50;4.70;;;18.10;99.90;;;;;;4992831;28;20187;-73
2024/03/18 10:20:14;;;;;;;7.53;4.23;;;17.90;99.90;;;;;;4992747;28;20248;-73
2024/03/18 10:22:41;;;;;;;6.43;4.90;;;17.60;99.90;;;;;;4992169;28;20181;-73
2024/03/18 10:25:17;;;;;;;6.50;4.00;;;17.50;99.90;;;;;;4992598;28;20173;-73
2024/03/18 10:27:45;;;;;;;4.30;3.00;;;17.30;99.90;;;;;;4993107;28;20579;-73
2024/03/18 10:30:13;;;;;;;4.53;3.30;;;17.60;99.90;;;;;;4992769;28;20173;-74
2024/03/18 10:32:42;;;;;;;7.90;3.63;;;17.70;99.90;;;;;;4992727;28;20288;-73
2024/03/18 10:35:19;;;;;;;7.67;3.37;;;18.10;99.90;;;;;;4992387;28;20184;-73
2024/03/18 10:37:58;;;;;;;9.27;3.40;;;18.50;99.90;;;;;;4992816;28;20200;-72
2024/03/18 10:40:30;;;;;;;8.27;2.87;;;18.90;99.90;;;;;;4992530;28;20202;-72
2024/03/18 10:43:00;;;;;;;3.63;2.67;;;19.40;99.90;;;;;;4992259;28;20704;-73
2024/03/18 10:45:27;;;;;;;5.82;3.25;;;19.70;99.90;;;;;;4991566;28;20646;-73
2024/03/18 10:47:54;;;;;;;5.60;3.20;;;19.70;99.90;;;;;;4992718;28;20173;-73
2024/03/18 10:50:23;;;;;;;9.07;3.90;;;19.40;99.90;;;;;;4995928;28;20226;-71
2024/03/18 10:52:50;;;;;;;6.65;3.38;;;19.30;99.90;;;;;;5012044;28;20172;-73
2024/03/18 10:55:18;;;;;;;6.03;3.07;;;19.20;99.90;;;;;;5011772;28;20195;-72
2024/03/18 10:57:51;;;;;;;7.38;3.55;;;19.40;99.90;;;;;;5011918;28;20180;-73
2024/03/18 11:00:20;;;;;;;6.05;2.90;;;19.80;99.90;;;;;;5011520;28;20176;-73
2024/03/18 11:03:00;;;;;;;5.72;3.10;;;20.20;99.90;;;;;;5009755;28;20227;-72
2024/03/18 11:05:32;;;;;;;6.78;3.25;;;19.80;99.90;;;;;;4992450;28;20188;-73
2024/03/18 11:07:59;;;;;;;5.67;3.27;;;19.40;99.90;;;;;;4992752;28;20181;-72
2024/03/18 11:10:35;;;;;;;7.27;3.80;;;19.00;99.90;;;;;;4992984;28;20188;-72
2024/03/18 11:13:18;;;;;;;8.47;4.00;;;18.60;99.90;;;;;;4992819;28;20192;-73
2024/03/18 11:15:47;;;;;;;5.87;3.80;;;18.60;99.90;;;;;;4991199;28;20189;-71
2024/03/18 11:18:33;;;;;;;7.50;3.60;;;18.80;99.90;;;;;;4992327;28;20192;-73
2024/03/18 11:21:00;;;;;;;4.43;3.20;;;18.70;99.90;;;;;;4992536;28;20250;-72
2024/03/18 11:23:30;;;;;;;8.77;4.22;;;19.00;99.90;;;;;;4991864;28;20208;-74
2024/03/18 11:26:10;;;;;;;4.80;3.92;;;19.40;99.90;;;;;;4991863;28;20176;-73
2024/03/18 11:28:43;;;;;;;5.57;3.97;;;19.50;99.90;;;;;;4992187;28;20223;-71
2024/03/18 11:31:15;;;;;;;5.72;3.85;;;19.60;99.90;;;;;;4992167;28;20200;-72
2024/03/18 11:33:44;;;;;;;6.53;3.67;;;19.50;99.90;;;;;;4992876;28;20177;-72
2024/03/18 11:36:15;;;;;;;5.93;3.63;;;19.30;99.90;;;;;;4991334;28;20229;-72
2024/03/18 11:38:40;;;;;;;8.37;4.00;;;18.80;99.90;;;;;;4991552;28;20200;-72
2024/03/18 11:41:06;;;;;;;6.13;4.23;;;18.30;99.90;;;;;;4991585;28;20197;-72
2024/03/18 11:43:32;;;;;;;5.53;4.47;;;18.00;99.90;;;;;;4991640;28;20187;-72
2024/03/18 11:46:00;;;;;;;7.30;4.77;;;18.00;99.90;;;;;;4991344;28;20176;-72
2024/03/18 11:48:28;;;;;;;4.57;3.60;;;18.40;99.90;;;;;;4991733;28;20598;-70
2024/03/18 11:50:55;;;;;;;7.15;4.13;;;18.80;99.90;;;;;;4991748;28;20203;-73
2024/03/18 11:53:21;;;;;;;6.45;3.70;;;19.20;99.90;;;;;;4991821;28;20181;-73
2024/03/18 11:55:54;;;;;;;7.82;4.07;;;19.30;99.90;;;;;;4991574;28;20279;-73
2024/03/18 11:58:20;;;;;;;5.70;4.07;;;18.90;99.90;;;;;;4991168;28;20567;-71
2024/03/18 12:00:49;;;;;;;10.80;4.50;;;18.70;99.90;;;;;;4991553;28;20203;-72
2024/03/18 12:03:15;;;;;;;6.33;4.10;;;18.40;99.90;;;;;;4991496;28;20173;-72
2024/03/18 12:05:46;;;;;;;4.23;3.83;;;18.20;99.90;;;;;;4991379;28;20188;-71
2024/03/18 12:08:23;;;;;;;5.90;4.40;;;17.80;99.90;;;;;;4991559;28;20177;-71
2024/03/18 12:13:17;;;;;;;10.20;4.77;;;17.20;99.90;;;;;;5009098;28;20220;-71
2024/03/18 12:15:42;;;;;;;7.07;5.30;;;17.10;99.90;;;;;;5010672;28;20275;-70
2024/03/18 12:18:08;;;;;;;7.37;6.33;;;17.00;99.90;;;;;;5010661;28;20191;-71
2024/03/18 12:20:33;;;;;;;4.67;4.20;;;17.00;99.90;;;;;;5010974;28;20236;-72
2024/03/18 12:23:00;;;;;;;5.40;4.53;;;17.00;99.90;;;;;;4991669;28;20196;-72
2024/03/18 12:31:15;;;;;;;5.40;3.63;;;17.50;99.90;;;;;;4982067;28;20207;-70
2024/03/18 12:33:43;;;;;;;5.17;3.37;;;18.10;99.90;;;;;;4993013;28;20557;-71
2024/03/18 12:36:15;;;;;;;4.73;3.33;;;18.70;99.90;;;;;;4994787;28;20215;-73
2024/03/18 12:38:47;;;;;;;4.37;3.40;;;19.00;99.90;;;;;;4994855;28;20224;-71
2024/03/18 12:41:17;;;;;;;8.83;3.80;;;18.90;99.90;;;;;;4994568;28;20216;-71
2024/03/18 12:43:49;;;;;;;7.17;3.80;;;18.70;99.90;;;;;;4994397;28;20175;-69